sensor_id;sensor_type;location;lat;lon;timestamp;pressure;altitude;pressure_sealevel;temperature;humidity
39681;BME280;26327;42.550;23.120;2023-03-01T07:51:52;93155.66;;;8.38;100.00
39681;BME280;26327;42.550;23.120;2023-03-01T07:54:18;93140.59;;;8.34;100.00
39681;BME280;26327;42.550;23.120;2023-03-01T07:56:44;93146.91;;;8.47;100.00
39681;BME280;26327;42.550;23.120;2023-03-01T07:59:09;93136.28;;;8.67;100.00
39681;BME280;26327;42.550;23.120;2023-03-01T08:01:35;93144.69;;;8.69;100.00
39681;BME280;26327;42.550;23.120;2023-03-01T08:04:00;93118.44;;;8.47;100.00
39681;BME280;26327;42.550;23.120;2023-03-01T08:06:27;93106.81;;;8.68;100.00
39681;BME280;26327;42.550;23.120;2023-03-01T08:08:52;93160.88;;;8.87;100.00
39681;BME280;26327;42.550;23.120;2023-03-01T08:11:20;93152.44;;;8.93;100.00
39681;BME280;26327;42.550;23.120;2023-03-01T08:13:47;93072.31;;;8.51;100.00
39681;BME280;26327;42.550;23.120;2023-03-01T08:16:14;93157.00;;;9.15;100.00
39681;BME280;26327;42.550;23.120;2023-03-01T08:18:41;93155.88;;;9.10;100.00
39681;BME280;26327;42.550;23.120;2023-03-01T08:21:12;93092.56;;;8.64;100.00
39681;BME280;26327;42.550;23.120;2023-03-01T08:23:39;93147.44;;;8.92;100.00
39681;BME280;26327;42.550;23.120;2023-03-01T08:26:08;93142.41;;;8.98;100.00
39681;BME280;26327;42.550;23.120;2023-03-01T08:28:34;93140.13;;;8.95;100.00
39681;BME280;26327;42.550;23.120;2023-03-01T08:31:00;93142.25;;;8.92;100.00
39681;BME280;26327;42.550;23.120;2023-03-01T08:33:25;93148.56;;;8.81;100.00
39681;BME280;26327;42.550;23.120;2023-03-01T08:35:50;93103.88;;;8.79;100.00
39681;BME280;26327;42.550;23.120;2023-03-01T08:38:16;93148.88;;;9.27;100.00
39681;BME280;26327;42.550;23.120;2023-03-01T08:40:41;93157.78;;;9.24;100.00
39681;BME280;26327;42.550;23.120;2023-03-01T08:43:06;93098.69;;;8.87;100.00
39681;BME280;26327;42.550;23.120;2023-03-01T08:45:32;93150.50;;;9.20;100.00
39681;BME280;26327;42.550;23.120;2023-03-01T08:47:57;93134.78;;;9.21;100.00
39681;BME280;26327;42.550;23.120;2023-03-01T08:50:23;93092.06;;;8.68;100.00
39681;BME280;26327;42.550;23.120;2023-03-01T08:52:50;93146.09;;;9.36;100.00
39681;BME280;26327;42.550;23.120;2023-03-01T08:55:15;93137.56;;;9.11;100.00
39681;BME280;26327;42.550;23.120;2023-03-01T08:57:42;93152.75;;;9.31;100.00
39681;BME280;26327;42.550;23.120;2023-03-01T09:00:10;93081.69;;;9.01;100.00
39681;BME280;26327;42.550;23.120;2023-03-01T09:02:40;93139.22;;;9.60;99.32
39681;BME280;26327;42.550;23.120;2023-03-01T09:05:05;93134.34;;;9.65;98.97
39681;BME280;26327;42.550;23.120;2023-03-01T09:07:30;93140.25;;;9.34;99.49
39681;BME280;26327;42.550;23.120;2023-03-01T09:09:56;93144.69;;;9.73;97.98
39681;BME280;26327;42.550;23.120;2023-03-01T09:12:22;93040.63;;;9.21;98.12
39681;BME280;26327;42.550;23.120;2023-03-01T09:14:47;93125.50;;;9.82;98.59
39681;BME280;26327;42.550;23.120;2023-03-01T09:17:13;93085.91;;;9.57;97.30
39681;BME280;26327;42.550;23.120;2023-03-01T09:19:38;93125.97;;;9.86;96.88
39681;BME280;26327;42.550;23.120;2023-03-01T09:22:04;93135.22;;;9.96;97.45
39681;BME280;26327;42.550;23.120;2023-03-01T09:24:29;93061.44;;;9.52;97.23
39681;BME280;26327;42.550;23.120;2023-03-01T09:26:55;93084.50;;;9.38;98.01
39681;BME280;26327;42.550;23.120;2023-03-01T09:29:21;93120.97;;;9.84;98.05
39681;BME280;26327;42.550;23.120;2023-03-01T09:31:47;93130.09;;;10.11;96.87
39681;BME280;26327;42.550;23.120;2023-03-01T09:34:12;93077.25;;;10.04;95.70
39681;BME280;26327;42.550;23.120;2023-03-01T09:36:41;93131.00;;;10.26;95.69
39681;BME280;26327;42.550;23.120;2023-03-01T09:39:07;93124.53;;;10.22;95.70
39681;BME280;26327;42.550;23.120;2023-03-01T09:41:43;93070.00;;;9.60;97.51
39681;BME280;26327;42.550;23.120;2023-03-01T09:46:58;93117.97;;;10.03;96.89
39681;BME280;26327;42.550;23.120;2023-03-01T09:49:27;93114.56;;;10.03;96.66
39681;BME280;26327;42.550;23.120;2023-03-01T09:52:04;93120.41;;;10.05;95.53
39681;BME280;26327;42.550;23.120;2023-03-01T09:54:34;93107.72;;;10.10;95.97
39681;BME280;26327;42.550;23.120;2023-03-01T10:00:05;93070.16;;;9.90;95.70
39681;BME280;26327;42.550;23.120;2023-03-01T10:02:52;93105.13;;;10.10;95.18
39681;BME280;26327;42.550;23.120;2023-03-01T10:10:35;93101.03;;;10.84;93.18
39681;BME280;26327;42.550;23.120;2023-03-01T10:13:10;93091.72;;;11.27;91.43
39681;BME280;26327;42.550;23.120;2023-03-01T10:15:48;93094.88;;;11.52;90.34
39681;BME280;26327;42.550;23.120;2023-03-01T10:18:25;93045.50;;;11.29;88.37
39681;BME280;26327;42.550;23.120;2023-03-01T10:20:55;93066.22;;;11.96;88.51
39681;BME280;26327;42.550;23.120;2023-03-01T10:23:23;93013.84;;;12.06;87.34
39681;BME280;26327;42.550;23.120;2023-03-01T10:26:05;93097.94;;;12.21;86.54
39681;BME280;26327;42.550;23.120;2023-03-01T10:31:25;93065.16;;;11.91;87.44
39681;BME280;26327;42.550;23.120;2023-03-01T10:33:55;93097.13;;;11.85;87.94
39681;BME280;26327;42.550;23.120;2023-03-01T10:36:22;93031.84;;;11.72;87.17
39681;BME280;26327;42.550;23.120;2023-03-01T10:38:57;93055.06;;;12.03;88.42
39681;BME280;26327;42.550;23.120;2023-03-01T10:41:24;92978.81;;;11.37;87.72
39681;BME280;26327;42.550;23.120;2023-03-01T10:43:57;93003.88;;;11.59;86.70
39681;BME280;26327;42.550;23.120;2023-03-01T10:46:36;93077.81;;;11.50;88.51
39681;BME280;26327;42.550;23.120;2023-03-01T10:49:15;93091.47;;;11.81;88.56
39681;BME280;26327;42.550;23.120;2023-03-01T10:51:43;93081.94;;;12.03;88.24
39681;BME280;26327;42.550;23.120;2023-03-01T10:54:30;93086.00;;;11.91;89.08
39681;BME280;26327;42.550;23.120;2023-03-01T10:56:58;93084.16;;;11.18;88.16
39681;BME280;26327;42.550;23.120;2023-03-01T11:02:01;93094.19;;;11.06;91.37
39681;BME280;26327;42.550;23.120;2023-03-01T11:04:28;93069.53;;;10.64;90.94
39681;BME280;26327;42.550;23.120;2023-03-01T11:07:00;93071.88;;;10.97;91.42
39681;BME280;26327;42.550;23.120;2023-03-01T11:09:31;93040.50;;;10.61;90.93
39681;BME280;26327;42.550;23.120;2023-03-01T11:12:03;93074.31;;;11.13;90.81
39681;BME280;26327;42.550;23.120;2023-03-01T11:14:36;93052.69;;;11.27;90.37
39681;BME280;26327;42.550;23.120;2023-03-01T11:17:15;93063.66;;;11.52;88.67
39681;BME280;26327;42.550;23.120;2023-03-01T11:20:00;93058.63;;;11.36;88.83
39681;BME280;26327;42.550;23.120;2023-03-01T11:22:25;93060.25;;;11.37;89.12
39681;BME280;26327;42.550;23.120;2023-03-01T11:24:52;93067.59;;;11.19;89.37
39681;BME280;26327;42.550;23.120;2023-03-01T11:29:47;93046.16;;;11.46;89.65
39681;BME280;26327;42.550;23.120;2023-03-01T11:32:17;93037.19;;;11.49;89.08
39681;BME280;26327;42.550;23.120;2023-03-01T11:34:57;93024.03;;;11.72;89.51
39681;BME280;26327;42.550;23.120;2023-03-01T11:40:10;92966.13;;;11.48;88.99
39681;BME280;26327;42.550;23.120;2023-03-01T11:43:01;92951.44;;;11.41;88.12
39681;BME280;26327;42.550;23.120;2023-03-01T11:48:45;93025.59;;;12.38;87.43
39681;BME280;26327;42.550;23.120;2023-03-01T11:51:52;93031.72;;;12.52;86.12
39681;BME280;26327;42.550;23.120;2023-03-01T11:59:45;93031.25;;;12.70;85.90
39681;BME280;26327;42.550;23.120;2023-03-01T12:05:03;93032.59;;;12.59;85.06
39681;BME280;26327;42.550;23.120;2023-03-01T12:10:44;93015.81;;;11.83;86.55
39681;BME280;26327;42.550;23.120;2023-03-01T12:13:23;93024.88;;;11.87;86.64
39681;BME280;26327;42.550;23.120;2023-03-01T12:21:54;92987.88;;;10.96;89.66
39681;BME280;26327;42.550;23.120;2023-03-01T12:38:37;92993.53;;;11.65;90.43
39681;BME280;26327;42.550;23.120;2023-03-01T12:41:28;93015.19;;;11.51;90.96
39681;BME280;26327;42.550;23.120;2023-03-01T12:44:15;93010.06;;;11.87;89.45
39681;BME280;26327;42.550;23.120;2023-03-01T12:47:19;93008.53;;;11.63;89.94
39681;BME280;26327;42.550;23.120;2023-03-01T12:49:52;93002.19;;;11.22;91.00
39681;BME280;26327;42.550;23.120;2023-03-01T12:52:37;93012.69;;;11.14;90.46
39681;BME280;26327;42.550;23.120;2023-03-01T12:55:24;93016.38;;;10.52;92.32
39681;BME280;26327;42.550;23.120;2023-03-01T13:00:35;92994.09;;;10.72;92.26
39681;BME280;26327;42.550;23.120;2023-03-01T13:06:10;93030.38;;;10.51;93.77
39681;BME280;26327;42.550;23.120;2023-03-01T13:08:47;93022.31;;;10.61;94.68
39681;BME280;26327;42.550;23.120;2023-03-01T13:11:20;93009.75;;;10.50;94.00
39681;BME280;26327;42.550;23.120;2023-03-01T13:13:46;92998.13;;;10.23;93.52
39681;BME280;26327;42.550;23.120;2023-03-01T13:16:40;93026.78;;;10.29;95.40
39681;BME280;26327;42.550;23.120;2023-03-01T13:19:19;92968.56;;;10.01;94.89
39681;BME280;26327;42.550;23.120;2023-03-01T13:21:47;92954.06;;;9.84;94.80
39681;BME280;26327;42.550;23.120;2023-03-01T13:24:38;93020.72;;;10.14;95.55
39681;BME280;26327;42.550;23.120;2023-03-01T13:32:42;92940.34;;;9.75;95.59
39681;BME280;26327;42.550;23.120;2023-03-01T13:37:45;93008.31;;;10.01;97.40
39681;BME280;26327;42.550;23.120;2023-03-01T13:42:53;92934.41;;;9.66;95.41
39681;BME280;26327;42.550;23.120;2023-03-01T13:47:45;92994.59;;;9.85;96.27
39681;BME280;26327;42.550;23.120;2023-03-01T13:50:38;92997.16;;;9.93;96.20
39681;BME280;26327;42.550;23.120;2023-03-01T13:53:13;92995.63;;;10.06;96.34
39681;BME280;26327;42.550;23.120;2023-03-01T13:55:44;92989.78;;;10.27;96.22
39681;BME280;26327;42.550;23.120;2023-03-01T13:58:31;92985.66;;;10.41;95.68
39681;BME280;26327;42.550;23.120;2023-03-01T14:01:03;92995.88;;;10.57;95.45
39681;BME280;26327;42.550;23.120;2023-03-01T14:03:31;92978.19;;;10.38;95.11
39681;BME280;26327;42.550;23.120;2023-03-01T14:06:07;92992.84;;;10.54;94.91
39681;BME280;26327;42.550;23.120;2023-03-01T14:08:35;92910.38;;;10.33;94.40
39681;BME280;26327;42.550;23.120;2023-03-01T14:19:43;92981.84;;;10.81;94.27
39681;BME280;26327;42.550;23.120;2023-03-01T14:22:20;92895.56;;;10.19;92.76
39681;BME280;26327;42.550;23.120;2023-03-01T14:24:50;92984.25;;;10.68;93.17
39681;BME280;26327;42.550;23.120;2023-03-01T14:27:17;92947.31;;;10.58;93.33
39681;BME280;26327;42.550;23.120;2023-03-01T14:29:44;92982.56;;;10.75;93.87
39681;BME280;26327;42.550;23.120;2023-03-01T14:32:23;92916.78;;;10.60;93.10
39681;BME280;26327;42.550;23.120;2023-03-01T14:34:50;92977.16;;;10.62;93.45
39681;BME280;26327;42.550;23.120;2023-03-01T14:37:20;92984.75;;;10.49;93.46
39681;BME280;26327;42.550;23.120;2023-03-01T14:39:46;92927.81;;;10.24;93.87
39681;BME280;26327;42.550;23.120;2023-03-01T14:42:12;92987.03;;;10.29;94.52
39681;BME280;26327;42.550;23.120;2023-03-01T14:44:41;92965.50;;;10.43;93.89
39681;BME280;26327;42.550;23.120;2023-03-01T14:47:12;92946.19;;;10.37;94.32
39681;BME280;26327;42.550;23.120;2023-03-01T14:49:38;92983.72;;;10.35;95.25
39681;BME280;26327;42.550;23.120;2023-03-01T14:52:07;92975.84;;;10.28;96.23
39681;BME280;26327;42.550;23.120;2023-03-01T14:54:43;92919.59;;;9.52;97.13
39681;BME280;26327;42.550;23.120;2023-03-01T14:57:15;92926.97;;;9.63;96.84
39681;BME280;26327;42.550;23.120;2023-03-01T14:59:42;92922.78;;;9.62;97.69
39681;BME280;26327;42.550;23.120;2023-03-01T15:02:13;92985.28;;;9.98;97.24
39681;BME280;26327;42.550;23.120;2023-03-01T15:04:44;92988.16;;;9.81;97.69
39681;BME280;26327;42.550;23.120;2023-03-01T15:07:12;92895.63;;;9.19;98.69
39681;BME280;26327;42.550;23.120;2023-03-01T15:09:39;92938.00;;;9.34;97.93
39681;BME280;26327;42.550;23.120;2023-03-01T15:12:25;92981.97;;;9.59;98.97
39681;BME280;26327;42.550;23.120;2023-03-01T15:14:50;92974.88;;;9.53;98.78
39681;BME280;26327;42.550;23.120;2023-03-01T15:17:29;92963.34;;;9.55;98.66
39681;BME280;26327;42.550;23.120;2023-03-01T15:19:55;92882.66;;;8.88;99.13
39681;BME280;26327;42.550;23.120;2023-03-01T15:22:23;92896.00;;;8.77;99.84
39681;BME280;26327;42.550;23.120;2023-03-01T15:24:50;92874.75;;;8.34;100.00
39681;BME280;26327;42.550;23.120;2023-03-01T15:27:18;92964.25;;;9.00;100.00
39681;BME280;26327;42.550;23.120;2023-03-01T15:29:56;92923.19;;;8.81;100.00
39681;BME280;26327;42.550;23.120;2023-03-01T15:34:48;92886.38;;;8.55;100.00
39681;BME280;26327;42.550;23.120;2023-03-01T15:37:38;92951.25;;;9.08;100.00
39681;BME280;26327;42.550;23.120;2023-03-01T15:40:22;92912.94;;;8.88;100.00
39681;BME280;26327;42.550;23.120;2023-03-01T15:42:50;92929.88;;;9.06;100.00
39681;BME280;26327;42.550;23.120;2023-03-01T15:50:27;92917.59;;;9.00;100.00
39681;BME280;26327;42.550;23.120;2023-03-01T15:52:53;92934.34;;;9.21;100.00
39681;BME280;26327;42.550;23.120;2023-03-01T15:55:22;92901.59;;;8.89;100.00
39681;BME280;26327;42.550;23.120;2023-03-01T15:57:48;92960.47;;;9.11;100.00
39681;BME280;26327;42.550;23.120;2023-03-01T16:00:14;92928.97;;;8.91;100.00
39681;BME280;26327;42.550;23.120;2023-03-01T16:02:41;92953.84;;;9.08;100.00
39681;BME280;26327;42.550;23.120;2023-03-01T16:05:23;92893.44;;;8.69;100.00
39681;BME280;26327;42.550;23.120;2023-03-01T16:07:49;92965.53;;;9.04;100.00
39681;BME280;26327;42.550;23.120;2023-03-01T16:10:16;92944.97;;;8.95;100.00
39681;BME280;26327;42.550;23.120;2023-03-01T16:12:41;92907.19;;;8.69;100.00
39681;BME280;26327;42.550;23.120;2023-03-01T16:15:17;92962.28;;;9.10;100.00
39681;BME280;26327;42.550;23.120;2023-03-01T16:17:43;92880.22;;;8.47;100.00
39681;BME280;26327;42.550;23.120;2023-03-01T16:20:09;92953.88;;;9.00;100.00
39681;BME280;26327;42.550;23.120;2023-03-01T16:22:34;92932.13;;;8.70;100.00
39681;BME280;26327;42.550;23.120;2023-03-01T16:25:00;92950.03;;;8.88;100.00
39681;BME280;26327;42.550;23.120;2023-03-01T16:27:25;92909.66;;;8.46;100.00
39681;BME280;26327;42.550;23.120;2023-03-01T16:29:51;92938.63;;;8.58;100.00
39681;BME280;26327;42.550;23.120;2023-03-01T16:32:16;92883.00;;;8.30;100.00
39681;BME280;26327;42.550;23.120;2023-03-01T16:34:41;92944.13;;;8.47;100.00
39681;BME280;26327;42.550;23.120;2023-03-01T16:37:07;92836.34;;;7.74;100.00
39681;BME280;26327;42.550;23.120;2023-03-01T16:39:32;92941.22;;;8.58;100.00
39681;BME280;26327;42.550;23.120;2023-03-01T16:42:00;92921.03;;;8.37;100.00
39681;BME280;26327;42.550;23.120;2023-03-01T16:44:26;92926.38;;;8.11;100.00
39681;BME280;26327;42.550;23.120;2023-03-01T16:46:51;92947.59;;;8.07;100.00
39681;BME280;26327;42.550;23.120;2023-03-01T16:49:17;92905.69;;;7.71;100.00
39681;BME280;26327;42.550;23.120;2023-03-01T16:51:42;92968.25;;;8.31;100.00
39681;BME280;26327;42.550;23.120;2023-03-01T16:54:09;92935.09;;;8.02;100.00
39681;BME280;26327;42.550;23.120;2023-03-01T16:56:34;92889.84;;;7.82;100.00
39681;BME280;26327;42.550;23.120;2023-03-01T16:59:02;92951.63;;;8.34;100.00
39681;BME280;26327;42.550;23.120;2023-03-01T17:01:28;92965.84;;;8.38;100.00
39681;BME280;26327;42.550;23.120;2023-03-01T17:04:00;92919.75;;;7.93;100.00
39681;BME280;26327;42.550;23.120;2023-03-01T17:06:26;92971.34;;;8.10;100.00
39681;BME280;26327;42.550;23.120;2023-03-01T17:08:52;92917.31;;;7.91;100.00
39681;BME280;26327;42.550;23.120;2023-03-01T17:11:19;92978.31;;;8.34;100.00
39681;BME280;26327;42.550;23.120;2023-03-01T17:13:45;92971.16;;;8.28;100.00
39681;BME280;26327;42.550;23.120;2023-03-01T17:16:13;92961.66;;;8.12;100.00
39681;BME280;26327;42.550;23.120;2023-03-01T17:18:39;92970.22;;;8.21;100.00
39681;BME280;26327;42.550;23.120;2023-03-01T17:21:06;92956.94;;;7.92;100.00
39681;BME280;26327;42.550;23.120;2023-03-01T17:23:33;92969.72;;;7.93;100.00
39681;BME280;26327;42.550;23.120;2023-03-01T17:25:59;92934.00;;;7.72;100.00
39681;BME280;26327;42.550;23.120;2023-03-01T17:28:28;92970.84;;;7.90;100.00
39681;BME280;26327;42.550;23.120;2023-03-01T17:30:54;92923.59;;;7.56;100.00
39681;BME280;26327;42.550;23.120;2023-03-01T17:33:20;92978.75;;;7.81;100.00
39681;BME280;26327;42.550;23.120;2023-03-01T17:35:46;92979.88;;;7.70;100.00
39681;BME280;26327;42.550;23.120;2023-03-01T17:38:15;92982.66;;;7.85;100.00
39681;BME280;26327;42.550;23.120;2023-03-01T17:40:42;92939.13;;;7.48;100.00
39681;BME280;26327;42.550;23.120;2023-03-01T17:43:11;92993.16;;;7.67;100.00
39681;BME280;26327;42.550;23.120;2023-03-01T17:45:37;92981.47;;;7.55;100.00
39681;BME280;26327;42.550;23.120;2023-03-01T17:48:04;92983.94;;;7.73;100.00
39681;BME280;26327;42.550;23.120;2023-03-01T17:50:30;92988.47;;;7.71;100.00
39681;BME280;26327;42.550;23.120;2023-03-01T17:52:55;92986.03;;;7.94;100.00
39681;BME280;26327;42.550;23.120;2023-03-01T17:55:21;93006.56;;;7.87;100.00
39681;BME280;26327;42.550;23.120;2023-03-01T17:57:47;93002.84;;;7.81;100.00
39681;BME280;26327;42.550;23.120;2023-03-01T18:00:13;93007.56;;;7.94;100.00
39681;BME280;26327;42.550;23.120;2023-03-01T18:02:39;92989.44;;;7.78;100.00
39681;BME280;26327;42.550;23.120;2023-03-01T18:05:05;92887.81;;;7.03;100.00
39681;BME280;26327;42.550;23.120;2023-03-01T18:07:31;93001.25;;;7.80;100.00
39681;BME280;26327;42.550;23.120;2023-03-01T18:09:56;92928.44;;;7.43;100.00
39681;BME280;26327;42.550;23.120;2023-03-01T18:12:22;92957.25;;;7.72;100.00
39681;BME280;26327;42.550;23.120;2023-03-01T18:14:48;92926.19;;;7.56;100.00
39681;BME280;26327;42.550;23.120;2023-03-01T18:17:21;92987.31;;;7.73;100.00
39681;BME280;26327;42.550;23.120;2023-03-01T18:19:47;92992.38;;;8.07;100.00
39681;BME280;26327;42.550;23.120;2023-03-01T18:22:13;92912.94;;;7.51;100.00
39681;BME280;26327;42.550;23.120;2023-03-01T18:24:39;92995.75;;;7.75;100.00
39681;BME280;26327;42.550;23.120;2023-03-01T18:27:05;92937.66;;;7.45;100.00
39681;BME280;26327;42.550;23.120;2023-03-01T18:29:31;92995.72;;;7.67;100.00
39681;BME280;26327;42.550;23.120;2023-03-01T18:31:56;93023.75;;;7.38;100.00
39681;BME280;26327;42.550;23.120;2023-03-01T18:34:22;92945.09;;;6.90;100.00
39681;BME280;26327;42.550;23.120;2023-03-01T18:36:47;92942.06;;;7.03;100.00
39681;BME280;26327;42.550;23.120;2023-03-01T18:39:16;92984.84;;;7.47;100.00
39681;BME280;26327;42.550;23.120;2023-03-01T18:41:42;92987.91;;;7.51;100.00
39681;BME280;26327;42.550;23.120;2023-03-01T18:44:08;92997.19;;;7.62;100.00
39681;BME280;26327;42.550;23.120;2023-03-01T18:46:35;92999.72;;;7.53;100.00
39681;BME280;26327;42.550;23.120;2023-03-01T18:49:02;93016.75;;;7.72;100.00
39681;BME280;26327;42.550;23.120;2023-03-01T18:51:27;93013.66;;;7.61;100.00
39681;BME280;26327;42.550;23.120;2023-03-01T18:53:54;93025.13;;;7.58;100.00
39681;BME280;26327;42.550;23.120;2023-03-01T18:56:20;92976.72;;;7.26;100.00
39681;BME280;26327;42.550;23.120;2023-03-01T18:58:45;92964.75;;;7.25;100.00
39681;BME280;26327;42.550;23.120;2023-03-01T19:01:17;93026.03;;;7.49;100.00
39681;BME280;26327;42.550;23.120;2023-03-01T19:03:43;93029.84;;;7.20;100.00
39681;BME280;26327;42.550;23.120;2023-03-01T19:06:08;93010.59;;;6.29;100.00
39681;BME280;26327;42.550;23.120;2023-03-01T19:08:34;93023.19;;;6.32;100.00
39681;BME280;26327;42.550;23.120;2023-03-01T19:11:02;92956.97;;;6.41;100.00
39681;BME280;26327;42.550;23.120;2023-03-01T19:13:27;92889.97;;;6.31;100.00
39681;BME280;26327;42.550;23.120;2023-03-01T19:16:03;93029.25;;;7.35;100.00
39681;BME280;26327;42.550;23.120;2023-03-01T19:18:28;93023.25;;;7.26;100.00
39681;BME280;26327;42.550;23.120;2023-03-01T19:21:02;93013.13;;;7.07;100.00
39681;BME280;26327;42.550;23.120;2023-03-01T19:23:29;92972.06;;;6.87;100.00
39681;BME280;26327;42.550;23.120;2023-03-01T19:26:00;92980.66;;;7.04;100.00
39681;BME280;26327;42.550;23.120;2023-03-01T19:28:26;93004.03;;;7.37;100.00
39681;BME280;26327;42.550;23.120;2023-03-01T19:31:00;92966.69;;;6.81;100.00
39681;BME280;26327;42.550;23.120;2023-03-01T19:33:27;93040.13;;;6.78;100.00
39681;BME280;26327;42.550;23.120;2023-03-01T19:35:53;93045.41;;;6.51;100.00
39681;BME280;26327;42.550;23.120;2023-03-01T19:38:18;93033.38;;;6.85;100.00
39681;BME280;26327;42.550;23.120;2023-03-01T19:40:44;92980.38;;;6.47;100.00
39681;BME280;26327;42.550;23.120;2023-03-01T19:43:09;93044.28;;;7.05;100.00
39681;BME280;26327;42.550;23.120;2023-03-01T19:45:35;93021.34;;;7.02;100.00
39681;BME280;26327;42.550;23.120;2023-03-01T19:48:00;93038.88;;;7.16;100.00
39681;BME280;26327;42.550;23.120;2023-03-01T19:50:26;93045.13;;;6.80;100.00
39681;BME280;26327;42.550;23.120;2023-03-01T19:52:51;92959.09;;;5.66;100.00
39681;BME280;26327;42.550;23.120;2023-03-01T19:55:17;93040.97;;;6.87;100.00
39681;BME280;26327;42.550;23.120;2023-03-01T19:57:42;93002.59;;;7.00;100.00
39681;BME280;26327;42.550;23.120;2023-03-01T20:00:08;93007.75;;;6.92;100.00
39681;BME280;26327;42.550;23.120;2023-03-01T20:02:34;93043.44;;;7.31;100.00
39681;BME280;26327;42.550;23.120;2023-03-01T20:04:59;93061.41;;;7.40;100.00
39681;BME280;26327;42.550;23.120;2023-03-01T20:07:25;93058.84;;;7.48;100.00
39681;BME280;26327;42.550;23.120;2023-03-01T20:09:50;93043.28;;;7.32;100.00
39681;BME280;26327;42.550;23.120;2023-03-01T20:12:16;93035.63;;;7.14;100.00
39681;BME280;26327;42.550;23.120;2023-03-01T20:14:44;92980.72;;;6.78;100.00
39681;BME280;26327;42.550;23.120;2023-03-01T20:17:09;93059.94;;;7.38;100.00
39681;BME280;26327;42.550;23.120;2023-03-01T20:19:35;93053.84;;;7.47;100.00
39681;BME280;26327;42.550;23.120;2023-03-01T20:22:00;93042.47;;;7.32;100.00
39681;BME280;26327;42.550;23.120;2023-03-01T20:24:28;93029.38;;;7.25;100.00
39681;BME280;26327;42.550;23.120;2023-03-01T20:26:56;92941.06;;;6.53;100.00
39681;BME280;26327;42.550;23.120;2023-03-01T20:29:22;93058.69;;;6.82;100.00
39681;BME280;26327;42.550;23.120;2023-03-01T20:31:47;93051.38;;;7.03;100.00
39681;BME280;26327;42.550;23.120;2023-03-01T20:34:13;93052.53;;;7.09;100.00
39681;BME280;26327;42.550;23.120;2023-03-01T20:36:38;93015.81;;;6.89;100.00
39681;BME280;26327;42.550;23.120;2023-03-01T20:39:05;93049.88;;;7.26;100.00
39681;BME280;26327;42.550;23.120;2023-03-01T20:41:31;93038.22;;;7.14;100.00
39681;BME280;26327;42.550;23.120;2023-03-01T20:43:56;93030.97;;;7.18;100.00
39681;BME280;26327;42.550;23.120;2023-03-01T20:46:24;93043.56;;;6.87;100.00
39681;BME280;26327;42.550;23.120;2023-03-01T20:48:51;93047.28;;;6.92;100.00
39681;BME280;26327;42.550;23.120;2023-03-01T20:51:18;93058.13;;;6.44;100.00
39681;BME280;26327;42.550;23.120;2023-03-01T20:53:44;93030.72;;;6.69;100.00
39681;BME280;26327;42.550;23.120;2023-03-01T20:56:12;92999.13;;;6.75;100.00
39681;BME280;26327;42.550;23.120;2023-03-01T20:58:39;93036.16;;;7.26;100.00
39681;BME280;26327;42.550;23.120;2023-03-01T21:01:06;92988.31;;;6.80;100.00
39681;BME280;26327;42.550;23.120;2023-03-01T21:03:33;93053.16;;;7.37;100.00
39681;BME280;26327;42.550;23.120;2023-03-01T21:06:01;93005.69;;;7.04;100.00
39681;BME280;26327;42.550;23.120;2023-03-01T21:08:28;93001.13;;;6.89;100.00
39681;BME280;26327;42.550;23.120;2023-03-01T21:10:55;92995.31;;;6.95;100.00
39681;BME280;26327;42.550;23.120;2023-03-01T21:13:21;92989.97;;;6.89;100.00
39681;BME280;26327;42.550;23.120;2023-03-01T21:16:06;93053.66;;;7.40;100.00
39681;BME280;26327;42.550;23.120;2023-03-01T21:18:35;93062.34;;;7.31;100.00
39681;BME280;26327;42.550;23.120;2023-03-01T21:23:30;93045.16;;;6.62;100.00
39681;BME280;26327;42.550;23.120;2023-03-01T21:26:01;93060.31;;;6.83;100.00
39681;BME280;26327;42.550;23.120;2023-03-01T21:28:26;93061.63;;;6.87;100.00
39681;BME280;26327;42.550;23.120;2023-03-01T21:31:01;93046.72;;;7.07;100.00
39681;BME280;26327;42.550;23.120;2023-03-01T21:33:26;93027.78;;;6.98;100.00
39681;BME280;26327;42.550;23.120;2023-03-01T21:35:57;92998.03;;;6.60;100.00
39681;BME280;26327;42.550;23.120;2023-03-01T21:38:22;93030.28;;;6.82;100.00
39681;BME280;26327;42.550;23.120;2023-03-01T21:40:48;93045.84;;;6.90;100.00
39681;BME280;26327;42.550;23.120;2023-03-01T21:43:13;93041.66;;;6.97;100.00
39681;BME280;26327;42.550;23.120;2023-03-01T21:45:38;92985.03;;;6.70;100.00
39681;BME280;26327;42.550;23.120;2023-03-01T21:48:04;93053.47;;;7.00;100.00
39681;BME280;26327;42.550;23.120;2023-03-01T21:50:29;92986.34;;;6.74;100.00
39681;BME280;26327;42.550;23.120;2023-03-01T21:52:55;93054.31;;;7.08;100.00
39681;BME280;26327;42.550;23.120;2023-03-01T21:55:20;92972.78;;;6.72;100.00
39681;BME280;26327;42.550;23.120;2023-03-01T21:57:46;92960.19;;;6.69;100.00
39681;BME280;26327;42.550;23.120;2023-03-01T22:00:12;93033.00;;;7.06;100.00
39681;BME280;26327;42.550;23.120;2023-03-01T22:02:38;93055.41;;;7.32;100.00
39681;BME280;26327;42.550;23.120;2023-03-01T22:05:04;92986.66;;;6.71;100.00
39681;BME280;26327;42.550;23.120;2023-03-01T22:07:29;93056.25;;;7.06;100.00
39681;BME280;26327;42.550;23.120;2023-03-01T22:09:55;93044.75;;;7.01;100.00
39681;BME280;26327;42.550;23.120;2023-03-01T22:12:20;92967.44;;;6.65;100.00
39681;BME280;26327;42.550;23.120;2023-03-01T22:14:46;93040.69;;;6.98;100.00
39681;BME280;26327;42.550;23.120;2023-03-01T22:17:11;93039.28;;;7.04;100.00
39681;BME280;26327;42.550;23.120;2023-03-01T22:19:36;93059.59;;;6.99;100.00
39681;BME280;26327;42.550;23.120;2023-03-01T22:22:02;93025.97;;;6.90;100.00
39681;BME280;26327;42.550;23.120;2023-03-01T22:24:27;92945.97;;;6.39;100.00